Wetterdaten: Woche 18.06.07 - 24.06.07 (KW25)
Datum Zeit Temperatur Luftfeuchte Luftdruck Niederschlag
18.06.2007 00:00 16,6 C 74 % 1011 hPa 0,0 l/m
18.06.2007 01:00 15,6 C 83 % 1012 hPa 1,0 l/m
18.06.2007 02:00 15,1 C 90 % 1013 hPa 1,0 l/m
18.06.2007 03:00 15,1 C 92 % 1013 hPa 0,0 l/m
18.06.2007 04:00 15,1 C 95 % 1013 hPa 1,0 l/m
18.06.2007 05:00 15,1 C 97 % 1013 hPa 0,0 l/m
18.06.2007 06:00 15,1 C 97 % 1014 hPa 0,0 l/m
18.06.2007 07:00 15,7 C 89 % 1014 hPa 0,0 l/m
18.06.2007 08:00 16,7 C 82 % 1015 hPa 0,0 l/m
18.06.2007 09:00 18,6 C 71 % 1015 hPa 0,0 l/m
18.06.2007 10:00 20,2 C 59 % 1015 hPa 0,0 l/m
18.06.2007 11:00 21,3 C 52 % 1016 hPa 0,0 l/m
18.06.2007 12:00 22,1 C 50 % 1016 hPa 0,0 l/m
18.06.2007 13:00 23,4 C 44 % 1016 hPa 0,0 l/m
18.06.2007 14:00 24,1 C 41 % 1016 hPa 0,0 l/m
18.06.2007 15:00 23,9 C 41 % 1015 hPa 0,0 l/m
18.06.2007 16:00 24,5 C 39 % 1015 hPa 0,0 l/m
18.06.2007 17:00 24,6 C 38 % 1015 hPa 0,0 l/m
18.06.2007 18:00 25,1 C 35 % 1015 hPa 0,0 l/m
18.06.2007 19:00 24,4 C 36 % 1015 hPa 0,0 l/m
18.06.2007 20:00 23,0 C 43 % 1015 hPa 0,0 l/m
18.06.2007 21:00 20,4 C 51 % 1015 hPa 0,0 l/m
18.06.2007 22:00 18,8 C 59 % 1016 hPa 0,0 l/m
18.06.2007 23:00 17,4 C 68 % 1016 hPa 0,0 l/m
19.06.2007 00:00 16,4 C 73 % 1016 hPa 0,0 l/m
19.06.2007 01:00 15,7 C 79 % 1016 hPa 0,0 l/m
19.06.2007 02:00 14,9 C 83 % 1016 hPa 0,0 l/m
19.06.2007 03:00 14,5 C 84 % 1017 hPa 0,0 l/m
19.06.2007 04:00 14,2 C 84 % 1017 hPa 0,0 l/m
19.06.2007 05:00 14,7 C 88 % 1018 hPa 0,0 l/m
19.06.2007 06:00 15,4 C 89 % 1018 hPa 0,0 l/m
19.06.2007 07:00 17,1 C 85 % 1018 hPa 0,0 l/m
19.06.2007 08:00 18,9 C 74 % 1018 hPa 0,0 l/m
19.06.2007 09:00 21,6 C 56 % 1017 hPa 0,0 l/m
19.06.2007 10:00 23,3 C 46 % 1017 hPa 0,0 l/m
19.06.2007 11:00 25,1 C 38 % 1017 hPa 0,0 l/m
19.06.2007 12:00 26,5 C 33 % 1017 hPa 0,0 l/m
19.06.2007 13:00 27,9 C 31 % 1017 hPa 0,0 l/m
19.06.2007 14:00 28,5 C 30 % 1016 hPa 0,0 l/m
19.06.2007 15:00 29,4 C 25 % 1016 hPa 0,0 l/m
19.06.2007 16:00 30,1 C 21 % 1015 hPa 0,0 l/m
19.06.2007 17:00 30,5 C 21 % 1015 hPa 0,0 l/m
19.06.2007 18:00 30,7 C 20 % 1014 hPa 0,0 l/m
19.06.2007 19:00 29,7 C 23 % 1014 hPa 0,0 l/m
19.06.2007 20:00 27,1 C 29 % 1014 hPa 0,0 l/m
19.06.2007 21:00 24,6 C 38 % 1014 hPa 0,0 l/m
19.06.2007 22:00 22,2 C 48 % 1014 hPa 0,0 l/m
19.06.2007 23:00 20,3 C 56 % 1014 hPa 0,0 l/m
20.06.2007 00:00 19,3 C 62 % 1013 hPa 0,0 l/m
20.06.2007 01:00 18,6 C 66 % 1013 hPa 0,0 l/m
20.06.2007 02:00 18,1 C 68 % 1013 hPa 0,0 l/m
20.06.2007 03:00 17,8 C 71 % 1014 hPa 0,0 l/m
20.06.2007 04:00 18,0 C 72 % 1014 hPa 0,0 l/m
20.06.2007 05:00 17,4 C 75 % 1014 hPa 0,0 l/m
20.06.2007 06:00 17,2 C 79 % 1015 hPa 0,0 l/m
20.06.2007 07:00 18,2 C 78 % 1016 hPa 0,0 l/m
20.06.2007 08:00 20,7 C 66 % 1016 hPa 0,0 l/m
20.06.2007 09:00 23,7 C 54 % 1016 hPa 0,0 l/m
20.06.2007 10:00 25,3 C 49 % 1016 hPa 0,0 l/m
20.06.2007 11:00 26,6 C 47 % 1016 hPa 0,0 l/m
20.06.2007 12:00 27,9 C 42 % 1016 hPa 0,0 l/m
20.06.2007 13:00 29,3 C 33 % 1016 hPa 0,0 l/m
20.06.2007 14:00 30,5 C 29 % 1015 hPa 0,0 l/m
20.06.2007 15:00 30,0 C 33 % 1015 hPa 0,0 l/m
20.06.2007 16:00 29,9 C 33 % 1015 hPa 0,0 l/m
20.06.2007 17:00 29,7 C 35 % 1014 hPa 0,0 l/m
20.06.2007 18:00 28,9 C 35 % 1014 hPa 0,0 l/m
20.06.2007 19:00 27,6 C 38 % 1014 hPa 0,0 l/m
20.06.2007 20:00 25,8 C 42 % 1013 hPa 0,0 l/m
20.06.2007 21:00 23,6 C 51 % 1014 hPa 0,0 l/m
20.06.2007 22:00 22,7 C 59 % 1015 hPa 0,0 l/m
20.06.2007 23:00 20,8 C 67 % 1015 hPa 18,0 l/m
21.06.2007 00:00 17,6 C 90 % 1016 hPa 5,0 l/m
21.06.2007 01:00 17,2 C 93 % 1015 hPa 0,0 l/m
21.06.2007 02:00 16,7 C 94 % 1014 hPa 0,0 l/m
21.06.2007 03:00 16,3 C 94 % 1014 hPa 0,0 l/m
21.06.2007 04:00 16,1 C 96 % 1014 hPa 0,0 l/m
21.06.2007 05:00 16,0 C 96 % 1014 hPa 0,0 l/m
21.06.2007 06:00 16,0 C 96 % 1014 hPa 1,0 l/m
21.06.2007 07:00 16,1 C 97 % 1014 hPa 0,0 l/m
21.06.2007 08:00 16,5 C 97 % 1013 hPa 0,0 l/m
21.06.2007 09:00 17,8 C 97 % 1012 hPa 0,0 l/m
21.06.2007 10:00 20,1 C 84 % 1013 hPa 3,0 l/m
21.06.2007 11:00 15,1 C 83 % 1015 hPa 6,0 l/m
21.06.2007 12:00 15,2 C 92 % 1015 hPa 0,0 l/m
21.06.2007 13:00 17,0 C 84 % 1015 hPa 0,0 l/m
21.06.2007 14:00 18,4 C 74 % 1015 hPa 0,0 l/m
21.06.2007 15:00 18,9 C 69 % 1016 hPa 0,0 l/m
21.06.2007 16:00 19,2 C 70 % 1015 hPa 0,0 l/m
21.06.2007 17:00 19,5 C 67 % 1015 hPa 0,0 l/m
21.06.2007 18:00 19,9 C 60 % 1016 hPa 0,0 l/m
21.06.2007 19:00 19,7 C 54 % 1016 hPa 0,0 l/m
21.06.2007 20:00 18,8 C 55 % 1017 hPa 0,0 l/m
21.06.2007 21:00 17,4 C 61 % 1017 hPa 0,0 l/m
21.06.2007 22:00 15,7 C 71 % 1017 hPa 0,0 l/m
21.06.2007 23:00 14,1 C 79 % 1017 hPa 0,0 l/m
22.06.2007 00:00 13,9 C 84 % 1017 hPa 0,0 l/m
22.06.2007 01:00 13,4 C 86 % 1017 hPa 0,0 l/m
22.06.2007 02:00 12,8 C 90 % 1017 hPa 0,0 l/m
22.06.2007 03:00 12,9 C 92 % 1016 hPa 0,0 l/m
22.06.2007 04:00 12,8 C 93 % 1015 hPa 0,0 l/m
22.06.2007 05:00 12,9 C 94 % 1014 hPa 0,0 l/m
22.06.2007 06:00 13,2 C 93 % 1014 hPa 0,0 l/m
22.06.2007 07:00 13,8 C 92 % 1014 hPa 0,0 l/m
22.06.2007 08:00 14,6 C 86 % 1014 hPa 0,0 l/m
22.06.2007 09:00 14,8 C 84 % 1014 hPa 1,0 l/m
22.06.2007 10:00 14,5 C 88 % 1014 hPa 0,0 l/m
22.06.2007 11:00 15,3 C 88 % 1015 hPa 1,0 l/m
22.06.2007 12:00 15,1 C 88 % 1015 hPa 6,0 l/m
22.06.2007 13:00 15,0 C 91 % 1015 hPa 1,0 l/m
22.06.2007 14:00 15,6 C 88 % 1015 hPa 0,0 l/m
22.06.2007 15:00 16,8 C 76 % 1015 hPa 0,0 l/m
22.06.2007 16:00 18,0 C 62 % 1015 hPa 0,0 l/m
22.06.2007 17:00 18,3 C 56 % 1014 hPa 0,0 l/m
22.06.2007 18:00 17,5 C 60 % 1014 hPa 0,0 l/m
22.06.2007 19:00 16,8 C 64 % 1014 hPa 0,0 l/m
22.06.2007 20:00 16,0 C 72 % 1014 hPa 0,0 l/m
22.06.2007 21:00 14,5 C 79 % 1015 hPa 0,0 l/m
22.06.2007 22:00 13,7 C 82 % 1015 hPa 0,0 l/m
22.06.2007 23:00 13,0 C 88 % 1016 hPa 0,0 l/m
23.06.2007 00:00 13,4 C 92 % 1015 hPa 0,0 l/m
23.06.2007 01:00 12,7 C 92 % 1015 hPa 0,0 l/m
23.06.2007 02:00 12,3 C 92 % 1015 hPa 0,0 l/m
23.06.2007 03:00 12,1 C 92 % 1015 hPa 0,0 l/m
23.06.2007 04:00 11,7 C 92 % 1015 hPa 0,0 l/m
23.06.2007 05:00 11,9 C 89 % 1015 hPa 0,0 l/m
23.06.2007 06:00 11,9 C 89 % 1015 hPa 0,0 l/m
23.06.2007 07:00 13,4 C 78 % 1015 hPa 0,0 l/m
23.06.2007 08:00 14,8 C 66 % 1016 hPa 0,0 l/m
23.06.2007 09:00 16,1 C 55 % 1016 hPa 0,0 l/m
23.06.2007 10:00 17,0 C 49 % 1016 hPa 0,0 l/m
23.06.2007 11:00 16,4 C 49 % 1016 hPa 0,0 l/m
23.06.2007 12:00 17,9 C 45 % 1016 hPa 0,0 l/m
23.06.2007 13:00 18,6 C 42 % 1016 hPa 0,0 l/m
23.06.2007 14:00 18,8 C 42 % 1016 hPa 0,0 l/m
23.06.2007 15:00 19,4 C 38 % 1016 hPa 0,0 l/m
23.06.2007 16:00 19,7 C 36 % 1016 hPa 0,0 l/m
23.06.2007 17:00 19,9 C 35 % 1016 hPa 0,0 l/m
23.06.2007 18:00 20,1 C 34 % 1016 hPa 0,0 l/m
23.06.2007 19:00 20,1 C 35 % 1017 hPa 0,0 l/m
23.06.2007 20:00 18,6 C 40 % 1017 hPa 0,0 l/m
23.06.2007 21:00 16,3 C 49 % 1018 hPa 0,0 l/m
23.06.2007 22:00 15,1 C 55 % 1018 hPa 0,0 l/m
23.06.2007 23:00 14,9 C 55 % 1018 hPa 0,0 l/m
24.06.2007 00:00 14,7 C 54 % 1018 hPa 0,0 l/m
24.06.2007 01:00 14,2 C 60 % 1018 hPa 0,0 l/m
24.06.2007 02:00 13,1 C 70 % 1018 hPa 0,0 l/m
24.06.2007 03:00 12,2 C 76 % 1018 hPa 0,0 l/m
24.06.2007 04:00 11,5 C 80 % 1018 hPa 0,0 l/m
24.06.2007 05:00 10,9 C 85 % 1018 hPa 0,0 l/m
24.06.2007 06:00 10,9 C 89 % 1018 hPa 0,0 l/m
24.06.2007 07:00 13,2 C 85 % 1018 hPa 0,0 l/m
24.06.2007 08:00 16,7 C 66 % 1018 hPa 0,0 l/m
24.06.2007 09:00 19,3 C 47 % 1018 hPa 0,0 l/m
24.06.2007 10:00 20,6 C 43 % 1018 hPa 0,0 l/m
24.06.2007 11:00 21,5 C 40 % 1018 hPa 0,0 l/m
24.06.2007 12:00 22,5 C 37 % 1017 hPa 0,0 l/m
24.06.2007 13:00 23,5 C 36 % 1017 hPa 0,0 l/m
24.06.2007 14:00 24,2 C 34 % 1016 hPa 0,0 l/m
24.06.2007 15:00 24,8 C 30 % 1016 hPa 0,0 l/m
24.06.2007 16:00 25,1 C 26 % 1015 hPa 0,0 l/m
24.06.2007 17:00 25,0 C 28 % 1015 hPa 0,0 l/m
24.06.2007 18:00 24,9 C 28 % 1015 hPa 0,0 l/m
24.06.2007 19:00 23,6 C 33 % 1014 hPa 0,0 l/m
24.06.2007 20:00 21,7 C 43 % 1014 hPa 0,0 l/m
24.06.2007 21:00 20,1 C 50 % 1014 hPa 0,0 l/m
24.06.2007 22:00 18,6 C 59 % 1013 hPa 0,0 l/m
24.06.2007 23:00 17,8 C 65 % 1014 hPa 0,0 l/m
Min-Datum _ 24.06.07 19.06.07 18.06.07 -
_ Min-Zeit 05:56 18:25 00:00 -
Minimum _ 10,6 C 19 % 1010 hPa -
Max-Datum _ 19.06.07 18.06.07 19.06.07 20.06.07
_ Max-Zeit 18:14 05:08 05:22 23:55
Maximum _ 30,9 C 97 % 1018 hPa 18,0 l/m
Durchschnitt _ 18,9 C 64 % 1016 hPa #45,0 l/m

Durchschnitt Minimum Temp.18,4 C
Durchschnitt Maximum Temp.19,5 C